sensor_id;sensor_type;location;lat;lon;timestamp;temperature;humidity
12115;DHT22;6121;49.810;6.418;2023-07-31T00:00:14;19.70;99.90
12115;DHT22;6121;49.810;6.418;2023-07-31T00:02:41;19.70;99.90
12115;DHT22;6121;49.810;6.418;2023-07-31T00:05:08;19.70;99.90
12115;DHT22;6121;49.810;6.418;2023-07-31T00:07:34;19.70;99.90
12115;DHT22;6121;49.810;6.418;2023-07-31T00:10:00;19.70;99.90
12115;DHT22;6121;49.810;6.418;2023-07-31T00:12:26;19.50;99.90
12115;DHT22;6121;49.810;6.418;2023-07-31T00:14:51;19.60;99.90
12115;DHT22;6121;49.810;6.418;2023-07-31T00:17:18;19.50;99.90
12115;DHT22;6121;49.810;6.418;2023-07-31T00:19:43;19.30;99.90
12115;DHT22;6121;49.810;6.418;2023-07-31T00:22:12;19.40;99.90
12115;DHT22;6121;49.810;6.418;2023-07-31T00:24:37;19.40;99.90
12115;DHT22;6121;49.810;6.418;2023-07-31T00:27:04;19.40;99.90
12115;DHT22;6121;49.810;6.418;2023-07-31T00:29:30;19.40;99.90
12115;DHT22;6121;49.810;6.418;2023-07-31T00:31:56;19.30;99.90
12115;DHT22;6121;49.810;6.418;2023-07-31T00:34:22;19.40;99.90
12115;DHT22;6121;49.810;6.418;2023-07-31T00:36:48;19.40;99.90
12115;DHT22;6121;49.810;6.418;2023-07-31T00:39:16;19.50;99.90
12115;DHT22;6121;49.810;6.418;2023-07-31T00:41:44;19.50;99.90
12115;DHT22;6121;49.810;6.418;2023-07-31T00:44:09;19.50;99.90
12115;DHT22;6121;49.810;6.418;2023-07-31T00:46:35;19.50;99.90
12115;DHT22;6121;49.810;6.418;2023-07-31T00:49:02;19.50;99.90
12115;DHT22;6121;49.810;6.418;2023-07-31T00:51:29;19.40;99.90
12115;DHT22;6121;49.810;6.418;2023-07-31T00:53:56;19.30;99.90
12115;DHT22;6121;49.810;6.418;2023-07-31T00:56:22;19.40;99.90
12115;DHT22;6121;49.810;6.418;2023-07-31T00:58:49;19.40;99.90
12115;DHT22;6121;49.810;6.418;2023-07-31T01:01:15;19.40;99.90
12115;DHT22;6121;49.810;6.418;2023-07-31T01:03:41;19.40;99.90
12115;DHT22;6121;49.810;6.418;2023-07-31T01:06:15;19.30;99.90
12115;DHT22;6121;49.810;6.418;2023-07-31T01:08:57;19.30;99.90
12115;DHT22;6121;49.810;6.418;2023-07-31T01:11:28;19.30;99.90
12115;DHT22;6121;49.810;6.418;2023-07-31T01:13:58;19.30;99.90
12115;DHT22;6121;49.810;6.418;2023-07-31T01:16:25;19.30;99.90
12115;DHT22;6121;49.810;6.418;2023-07-31T01:18:51;19.30;99.90
12115;DHT22;6121;49.810;6.418;2023-07-31T01:24:08;19.20;99.90
12115;DHT22;6121;49.810;6.418;2023-07-31T01:26:39;19.20;99.90
12115;DHT22;6121;49.810;6.418;2023-07-31T01:32:02;19.00;99.90
12115;DHT22;6121;49.810;6.418;2023-07-31T01:34:29;19.00;99.90
12115;DHT22;6121;49.810;6.418;2023-07-31T01:36:56;19.10;99.90
12115;DHT22;6121;49.810;6.418;2023-07-31T01:39:24;19.10;99.90
12115;DHT22;6121;49.810;6.418;2023-07-31T01:41:50;19.10;99.90
12115;DHT22;6121;49.810;6.418;2023-07-31T01:44:15;19.10;99.90
12115;DHT22;6121;49.810;6.418;2023-07-31T01:46:41;19.10;99.90
12115;DHT22;6121;49.810;6.418;2023-07-31T01:49:08;19.10;99.90
12115;DHT22;6121;49.810;6.418;2023-07-31T01:51:34;19.10;99.90
12115;DHT22;6121;49.810;6.418;2023-07-31T01:54:00;19.10;99.90
12115;DHT22;6121;49.810;6.418;2023-07-31T01:56:27;19.10;99.90
12115;DHT22;6121;49.810;6.418;2023-07-31T01:58:53;19.10;99.90
12115;DHT22;6121;49.810;6.418;2023-07-31T02:01:19;19.10;99.90
12115;DHT22;6121;49.810;6.418;2023-07-31T02:03:45;19.10;99.90
12115;DHT22;6121;49.810;6.418;2023-07-31T02:06:11;19.10;99.90
12115;DHT22;6121;49.810;6.418;2023-07-31T02:08:36;19.10;99.90
12115;DHT22;6121;49.810;6.418;2023-07-31T02:11:03;19.00;99.90
12115;DHT22;6121;49.810;6.418;2023-07-31T02:13:30;19.00;99.90
12115;DHT22;6121;49.810;6.418;2023-07-31T02:15:56;19.00;99.90
12115;DHT22;6121;49.810;6.418;2023-07-31T02:18:23;19.00;99.90
12115;DHT22;6121;49.810;6.418;2023-07-31T02:20:52;19.00;99.90
12115;DHT22;6121;49.810;6.418;2023-07-31T02:23:19;19.10;99.90
12115;DHT22;6121;49.810;6.418;2023-07-31T02:25:45;19.00;99.90
12115;DHT22;6121;49.810;6.418;2023-07-31T02:28:11;19.00;99.90
12115;DHT22;6121;49.810;6.418;2023-07-31T02:30:37;19.00;99.90
12115;DHT22;6121;49.810;6.418;2023-07-31T02:33:04;18.90;99.90
12115;DHT22;6121;49.810;6.418;2023-07-31T02:35:30;19.00;99.90
12115;DHT22;6121;49.810;6.418;2023-07-31T02:37:56;19.00;99.90
12115;DHT22;6121;49.810;6.418;2023-07-31T02:40:22;19.00;99.90
12115;DHT22;6121;49.810;6.418;2023-07-31T02:42:50;18.90;99.90
12115;DHT22;6121;49.810;6.418;2023-07-31T02:45:16;19.00;99.90
12115;DHT22;6121;49.810;6.418;2023-07-31T02:47:41;18.90;99.90
12115;DHT22;6121;49.810;6.418;2023-07-31T02:50:07;18.90;99.90
12115;DHT22;6121;49.810;6.418;2023-07-31T02:52:33;18.90;99.90
12115;DHT22;6121;49.810;6.418;2023-07-31T02:54:59;18.80;99.90
12115;DHT22;6121;49.810;6.418;2023-07-31T02:57:25;18.90;99.90
12115;DHT22;6121;49.810;6.418;2023-07-31T02:59:51;18.90;99.90
12115;DHT22;6121;49.810;6.418;2023-07-31T03:02:17;18.80;99.90
12115;DHT22;6121;49.810;6.418;2023-07-31T03:04:43;18.80;99.90
12115;DHT22;6121;49.810;6.418;2023-07-31T03:07:08;18.80;99.90
12115;DHT22;6121;49.810;6.418;2023-07-31T03:09:34;18.80;99.90
12115;DHT22;6121;49.810;6.418;2023-07-31T03:12:00;18.90;99.90
12115;DHT22;6121;49.810;6.418;2023-07-31T03:14:27;18.90;99.90
12115;DHT22;6121;49.810;6.418;2023-07-31T03:16:53;18.90;99.90
12115;DHT22;6121;49.810;6.418;2023-07-31T03:19:19;18.90;99.90
12115;DHT22;6121;49.810;6.418;2023-07-31T03:21:46;18.90;99.90
12115;DHT22;6121;49.810;6.418;2023-07-31T03:24:11;18.90;99.90
12115;DHT22;6121;49.810;6.418;2023-07-31T03:26:40;18.90;99.90
12115;DHT22;6121;49.810;6.418;2023-07-31T03:29:07;18.90;99.90
12115;DHT22;6121;49.810;6.418;2023-07-31T03:31:33;19.00;99.90
12115;DHT22;6121;49.810;6.418;2023-07-31T03:33:59;19.00;99.90
12115;DHT22;6121;49.810;6.418;2023-07-31T03:36:26;18.90;99.90
12115;DHT22;6121;49.810;6.418;2023-07-31T03:38:53;18.90;99.90
12115;DHT22;6121;49.810;6.418;2023-07-31T03:41:19;18.90;99.90
12115;DHT22;6121;49.810;6.418;2023-07-31T03:43:49;18.90;99.90
12115;DHT22;6121;49.810;6.418;2023-07-31T03:46:15;18.90;99.90
12115;DHT22;6121;49.810;6.418;2023-07-31T03:48:41;18.90;99.90
12115;DHT22;6121;49.810;6.418;2023-07-31T03:51:06;18.90;99.90
12115;DHT22;6121;49.810;6.418;2023-07-31T03:53:32;18.90;99.90
12115;DHT22;6121;49.810;6.418;2023-07-31T03:55:58;18.80;99.90
12115;DHT22;6121;49.810;6.418;2023-07-31T03:58:24;18.80;99.90
12115;DHT22;6121;49.810;6.418;2023-07-31T04:00:49;18.80;99.90
12115;DHT22;6121;49.810;6.418;2023-07-31T04:03:15;18.70;99.90
12115;DHT22;6121;49.810;6.418;2023-07-31T04:05:42;18.70;99.90
12115;DHT22;6121;49.810;6.418;2023-07-31T04:08:08;18.70;99.90
12115;DHT22;6121;49.810;6.418;2023-07-31T04:10:33;18.60;99.90
12115;DHT22;6121;49.810;6.418;2023-07-31T04:13:00;18.60;99.90
12115;DHT22;6121;49.810;6.418;2023-07-31T04:15:26;18.60;99.90
12115;DHT22;6121;49.810;6.418;2023-07-31T04:17:52;18.60;99.90
12115;DHT22;6121;49.810;6.418;2023-07-31T04:20:17;18.50;99.90
12115;DHT22;6121;49.810;6.418;2023-07-31T04:22:43;18.50;99.90
12115;DHT22;6121;49.810;6.418;2023-07-31T04:25:09;18.50;99.90
12115;DHT22;6121;49.810;6.418;2023-07-31T04:27:35;18.50;99.90
12115;DHT22;6121;49.810;6.418;2023-07-31T04:30:00;18.50;99.90
12115;DHT22;6121;49.810;6.418;2023-07-31T04:32:26;18.40;99.90
12115;DHT22;6121;49.810;6.418;2023-07-31T04:34:52;18.40;99.90
12115;DHT22;6121;49.810;6.418;2023-07-31T04:37:18;18.30;99.90
12115;DHT22;6121;49.810;6.418;2023-07-31T04:39:44;18.40;99.90
12115;DHT22;6121;49.810;6.418;2023-07-31T04:42:10;18.40;99.90
12115;DHT22;6121;49.810;6.418;2023-07-31T04:44:35;18.20;99.90
12115;DHT22;6121;49.810;6.418;2023-07-31T04:47:01;18.30;99.90
12115;DHT22;6121;49.810;6.418;2023-07-31T04:49:28;18.20;99.90
12115;DHT22;6121;49.810;6.418;2023-07-31T04:51:53;18.20;99.90
12115;DHT22;6121;49.810;6.418;2023-07-31T04:54:19;18.30;99.90
12115;DHT22;6121;49.810;6.418;2023-07-31T04:56:45;18.30;99.90
12115;DHT22;6121;49.810;6.418;2023-07-31T04:59:11;18.20;99.90
12115;DHT22;6121;49.810;6.418;2023-07-31T05:01:36;18.20;99.90
12115;DHT22;6121;49.810;6.418;2023-07-31T05:04:02;18.10;99.90
12115;DHT22;6121;49.810;6.418;2023-07-31T05:06:29;18.20;99.90
12115;DHT22;6121;49.810;6.418;2023-07-31T05:08:55;18.30;99.90
12115;DHT22;6121;49.810;6.418;2023-07-31T05:11:20;18.10;99.90
12115;DHT22;6121;49.810;6.418;2023-07-31T05:13:46;18.10;99.90
12115;DHT22;6121;49.810;6.418;2023-07-31T05:16:12;18.10;99.90
12115;DHT22;6121;49.810;6.418;2023-07-31T05:18:38;18.20;99.90
12115;DHT22;6121;49.810;6.418;2023-07-31T05:21:03;18.20;99.90
12115;DHT22;6121;49.810;6.418;2023-07-31T05:23:29;18.20;99.90
12115;DHT22;6121;49.810;6.418;2023-07-31T05:26:06;18.20;99.90
12115;DHT22;6121;49.810;6.418;2023-07-31T05:28:34;18.30;99.90
12115;DHT22;6121;49.810;6.418;2023-07-31T05:31:00;18.30;99.90
12115;DHT22;6121;49.810;6.418;2023-07-31T05:33:26;18.30;99.90
12115;DHT22;6121;49.810;6.418;2023-07-31T05:35:52;18.30;99.90
12115;DHT22;6121;49.810;6.418;2023-07-31T05:38:18;18.30;99.90
12115;DHT22;6121;49.810;6.418;2023-07-31T05:40:44;18.30;99.90
12115;DHT22;6121;49.810;6.418;2023-07-31T05:43:10;18.30;99.90
12115;DHT22;6121;49.810;6.418;2023-07-31T05:45:36;18.30;99.90
12115;DHT22;6121;49.810;6.418;2023-07-31T05:48:02;18.30;99.90
12115;DHT22;6121;49.810;6.418;2023-07-31T05:50:29;18.30;99.90
12115;DHT22;6121;49.810;6.418;2023-07-31T05:52:55;18.40;99.90
12115;DHT22;6121;49.810;6.418;2023-07-31T05:55:21;18.40;99.90
12115;DHT22;6121;49.810;6.418;2023-07-31T05:57:46;18.50;99.90
12115;DHT22;6121;49.810;6.418;2023-07-31T06:00:13;18.60;99.90
12115;DHT22;6121;49.810;6.418;2023-07-31T06:02:39;18.80;99.90
12115;DHT22;6121;49.810;6.418;2023-07-31T06:05:05;18.90;99.90
12115;DHT22;6121;49.810;6.418;2023-07-31T06:07:32;18.90;99.90
12115;DHT22;6121;49.810;6.418;2023-07-31T06:09:58;18.90;99.90
12115;DHT22;6121;49.810;6.418;2023-07-31T06:12:29;19.00;99.90
12115;DHT22;6121;49.810;6.418;2023-07-31T06:14:54;19.00;99.90
12115;DHT22;6121;49.810;6.418;2023-07-31T06:17:20;19.20;99.90
12115;DHT22;6121;49.810;6.418;2023-07-31T06:19:47;19.30;99.90
12115;DHT22;6121;49.810;6.418;2023-07-31T06:22:13;19.40;99.90
12115;DHT22;6121;49.810;6.418;2023-07-31T06:24:38;19.70;99.90
12115;DHT22;6121;49.810;6.418;2023-07-31T06:27:05;19.80;99.90
12115;DHT22;6121;49.810;6.418;2023-07-31T06:29:31;20.10;99.90
12115;DHT22;6121;49.810;6.418;2023-07-31T06:31:57;20.10;99.90
12115;DHT22;6121;49.810;6.418;2023-07-31T06:34:23;20.10;99.90
12115;DHT22;6121;49.810;6.418;2023-07-31T06:36:49;20.00;99.90
12115;DHT22;6121;49.810;6.418;2023-07-31T06:39:15;20.00;99.90
12115;DHT22;6121;49.810;6.418;2023-07-31T06:41:42;20.10;99.90
12115;DHT22;6121;49.810;6.418;2023-07-31T06:44:10;20.10;99.90
12115;DHT22;6121;49.810;6.418;2023-07-31T06:46:36;20.20;99.90
12115;DHT22;6121;49.810;6.418;2023-07-31T06:49:03;20.30;99.90
12115;DHT22;6121;49.810;6.418;2023-07-31T06:51:29;20.30;99.90
12115;DHT22;6121;49.810;6.418;2023-07-31T06:53:57;20.30;99.90
12115;DHT22;6121;49.810;6.418;2023-07-31T06:56:23;20.20;99.90
12115;DHT22;6121;49.810;6.418;2023-07-31T06:58:49;20.20;99.90
12115;DHT22;6121;49.810;6.418;2023-07-31T07:01:15;20.30;99.90
12115;DHT22;6121;49.810;6.418;2023-07-31T07:03:41;20.20;99.90
12115;DHT22;6121;49.810;6.418;2023-07-31T07:06:07;20.30;99.90
12115;DHT22;6121;49.810;6.418;2023-07-31T07:08:32;20.20;99.90
12115;DHT22;6121;49.810;6.418;2023-07-31T07:10:58;20.20;99.90
12115;DHT22;6121;49.810;6.418;2023-07-31T07:13:24;20.20;99.90
12115;DHT22;6121;49.810;6.418;2023-07-31T07:15:50;20.30;99.90
12115;DHT22;6121;49.810;6.418;2023-07-31T07:18:18;20.30;99.90
12115;DHT22;6121;49.810;6.418;2023-07-31T07:20:51;20.30;99.90
12115;DHT22;6121;49.810;6.418;2023-07-31T07:23:17;20.40;99.90
12115;DHT22;6121;49.810;6.418;2023-07-31T07:25:44;20.70;99.90
12115;DHT22;6121;49.810;6.418;2023-07-31T07:28:10;20.60;99.90
12115;DHT22;6121;49.810;6.418;2023-07-31T07:30:36;20.50;99.90
12115;DHT22;6121;49.810;6.418;2023-07-31T07:33:02;20.60;99.90
12115;DHT22;6121;49.810;6.418;2023-07-31T07:35:28;20.60;99.90
12115;DHT22;6121;49.810;6.418;2023-07-31T07:37:54;20.60;99.90
12115;DHT22;6121;49.810;6.418;2023-07-31T07:40:20;20.70;99.90
12115;DHT22;6121;49.810;6.418;2023-07-31T07:42:46;20.70;99.90
12115;DHT22;6121;49.810;6.418;2023-07-31T07:45:12;20.80;99.90
12115;DHT22;6121;49.810;6.418;2023-07-31T07:47:41;20.80;99.90
12115;DHT22;6121;49.810;6.418;2023-07-31T07:50:07;21.10;99.90
12115;DHT22;6121;49.810;6.418;2023-07-31T07:52:33;21.10;99.90
12115;DHT22;6121;49.810;6.418;2023-07-31T07:54:59;21.30;99.90
12115;DHT22;6121;49.810;6.418;2023-07-31T07:57:26;21.40;99.90
12115;DHT22;6121;49.810;6.418;2023-07-31T07:59:56;21.60;99.90
12115;DHT22;6121;49.810;6.418;2023-07-31T08:02:22;21.60;99.90
12115;DHT22;6121;49.810;6.418;2023-07-31T08:04:48;21.60;99.90
12115;DHT22;6121;49.810;6.418;2023-07-31T08:07:14;21.30;99.90
12115;DHT22;6121;49.810;6.418;2023-07-31T08:09:40;21.40;99.90
12115;DHT22;6121;49.810;6.418;2023-07-31T08:12:07;21.60;99.90
12115;DHT22;6121;49.810;6.418;2023-07-31T08:14:33;21.70;99.90
12115;DHT22;6121;49.810;6.418;2023-07-31T08:16:59;21.90;99.90
12115;DHT22;6121;49.810;6.418;2023-07-31T08:19:26;21.90;99.90
12115;DHT22;6121;49.810;6.418;2023-07-31T08:21:51;21.80;99.90
12115;DHT22;6121;49.810;6.418;2023-07-31T08:24:17;21.80;99.90
12115;DHT22;6121;49.810;6.418;2023-07-31T08:26:43;21.90;99.90
12115;DHT22;6121;49.810;6.418;2023-07-31T08:29:09;21.80;99.90
12115;DHT22;6121;49.810;6.418;2023-07-31T08:31:35;21.70;99.90
12115;DHT22;6121;49.810;6.418;2023-07-31T08:34:01;21.80;99.90
12115;DHT22;6121;49.810;6.418;2023-07-31T08:36:27;21.80;99.90
12115;DHT22;6121;49.810;6.418;2023-07-31T08:38:52;21.70;99.90
12115;DHT22;6121;49.810;6.418;2023-07-31T08:41:18;21.80;99.90
12115;DHT22;6121;49.810;6.418;2023-07-31T08:43:50;21.80;99.90
12115;DHT22;6121;49.810;6.418;2023-07-31T08:46:16;21.90;99.90
12115;DHT22;6121;49.810;6.418;2023-07-31T08:48:43;21.90;99.90
12115;DHT22;6121;49.810;6.418;2023-07-31T08:51:09;21.80;99.90
12115;DHT22;6121;49.810;6.418;2023-07-31T08:53:35;21.80;99.90
12115;DHT22;6121;49.810;6.418;2023-07-31T08:56:02;21.70;99.90
12115;DHT22;6121;49.810;6.418;2023-07-31T08:58:31;21.50;99.90
12115;DHT22;6121;49.810;6.418;2023-07-31T09:01:01;21.70;99.90
12115;DHT22;6121;49.810;6.418;2023-07-31T09:03:29;21.80;99.90
12115;DHT22;6121;49.810;6.418;2023-07-31T09:05:58;21.80;99.90
12115;DHT22;6121;49.810;6.418;2023-07-31T09:08:26;22.00;99.90
12115;DHT22;6121;49.810;6.418;2023-07-31T09:11:01;22.00;99.90
12115;DHT22;6121;49.810;6.418;2023-07-31T09:13:31;22.10;99.90
12115;DHT22;6121;49.810;6.418;2023-07-31T09:15:57;22.00;99.90
12115;DHT22;6121;49.810;6.418;2023-07-31T09:18:23;22.10;99.90
12115;DHT22;6121;49.810;6.418;2023-07-31T09:21:05;22.10;99.90
12115;DHT22;6121;49.810;6.418;2023-07-31T09:26:07;22.40;99.90
12115;DHT22;6121;49.810;6.418;2023-07-31T09:28:34;22.30;99.90
12115;DHT22;6121;49.810;6.418;2023-07-31T09:30:59;22.30;99.90
12115;DHT22;6121;49.810;6.418;2023-07-31T09:33:25;22.20;99.90
12115;DHT22;6121;49.810;6.418;2023-07-31T09:35:51;22.30;99.90
12115;DHT22;6121;49.810;6.418;2023-07-31T09:38:18;22.20;99.90
12115;DHT22;6121;49.810;6.418;2023-07-31T09:40:46;22.30;99.90
12115;DHT22;6121;49.810;6.418;2023-07-31T09:43:20;22.40;99.90
12115;DHT22;6121;49.810;6.418;2023-07-31T09:45:46;22.20;99.90
12115;DHT22;6121;49.810;6.418;2023-07-31T09:48:14;22.30;99.90
12115;DHT22;6121;49.810;6.418;2023-07-31T09:50:45;22.20;99.90
12115;DHT22;6121;49.810;6.418;2023-07-31T09:53:11;22.20;99.90
12115;DHT22;6121;49.810;6.418;2023-07-31T09:55:45;22.30;99.90
12115;DHT22;6121;49.810;6.418;2023-07-31T09:58:12;22.30;99.90
12115;DHT22;6121;49.810;6.418;2023-07-31T10:00:38;22.30;99.90
12115;DHT22;6121;49.810;6.418;2023-07-31T10:03:09;22.40;99.90
12115;DHT22;6121;49.810;6.418;2023-07-31T10:05:39;22.40;99.90
12115;DHT22;6121;49.810;6.418;2023-07-31T10:08:07;22.20;99.90
12115;DHT22;6121;49.810;6.418;2023-07-31T10:10:36;22.20;99.90
12115;DHT22;6121;49.810;6.418;2023-07-31T10:13:04;22.20;99.90
12115;DHT22;6121;49.810;6.418;2023-07-31T10:15:31;22.10;99.90
12115;DHT22;6121;49.810;6.418;2023-07-31T10:17:58;22.00;99.90
12115;DHT22;6121;49.810;6.418;2023-07-31T10:20:26;21.90;99.90
12115;DHT22;6121;49.810;6.418;2023-07-31T10:22:52;21.90;99.90
12115;DHT22;6121;49.810;6.418;2023-07-31T10:25:20;22.10;99.90
12115;DHT22;6121;49.810;6.418;2023-07-31T10:27:47;22.00;99.90
12115;DHT22;6121;49.810;6.418;2023-07-31T10:30:16;22.00;99.90
12115;DHT22;6121;49.810;6.418;2023-07-31T10:32:43;21.90;99.90
12115;DHT22;6121;49.810;6.418;2023-07-31T10:35:10;22.00;99.90
12115;DHT22;6121;49.810;6.418;2023-07-31T10:37:41;22.10;99.90
12115;DHT22;6121;49.810;6.418;2023-07-31T10:40:13;22.20;99.90
12115;DHT22;6121;49.810;6.418;2023-07-31T10:42:49;22.40;99.90
12115;DHT22;6121;49.810;6.418;2023-07-31T10:45:31;22.70;99.90
12115;DHT22;6121;49.810;6.418;2023-07-31T10:48:02;23.00;99.90
12115;DHT22;6121;49.810;6.418;2023-07-31T10:50:30;23.60;99.90
12115;DHT22;6121;49.810;6.418;2023-07-31T10:52:58;23.70;99.90
12115;DHT22;6121;49.810;6.418;2023-07-31T10:57:53;23.30;99.90
12115;DHT22;6121;49.810;6.418;2023-07-31T11:00:26;23.20;99.90
12115;DHT22;6121;49.810;6.418;2023-07-31T11:03:03;23.30;99.90
12115;DHT22;6121;49.810;6.418;2023-07-31T11:08:33;23.00;99.90
12115;DHT22;6121;49.810;6.418;2023-07-31T11:13:31;22.70;99.90
12115;DHT22;6121;49.810;6.418;2023-07-31T11:15:57;22.40;99.90
12115;DHT22;6121;49.810;6.418;2023-07-31T11:18:23;22.20;99.90
12115;DHT22;6121;49.810;6.418;2023-07-31T11:20:49;22.10;99.90
12115;DHT22;6121;49.810;6.418;2023-07-31T11:23:17;22.10;99.90
12115;DHT22;6121;49.810;6.418;2023-07-31T11:25:43;22.10;99.90
12115;DHT22;6121;49.810;6.418;2023-07-31T11:28:13;22.10;99.90
12115;DHT22;6121;49.810;6.418;2023-07-31T11:30:40;22.00;99.90
12115;DHT22;6121;49.810;6.418;2023-07-31T11:33:08;22.10;99.90
12115;DHT22;6121;49.810;6.418;2023-07-31T11:35:36;22.20;99.90
12115;DHT22;6121;49.810;6.418;2023-07-31T11:38:02;22.30;99.90
12115;DHT22;6121;49.810;6.418;2023-07-31T11:40:28;22.30;99.90
12115;DHT22;6121;49.810;6.418;2023-07-31T11:43:04;22.20;99.90
12115;DHT22;6121;49.810;6.418;2023-07-31T11:45:30;22.30;99.90
12115;DHT22;6121;49.810;6.418;2023-07-31T11:47:57;22.40;99.90
12115;DHT22;6121;49.810;6.418;2023-07-31T11:50:23;22.30;99.90
12115;DHT22;6121;49.810;6.418;2023-07-31T11:52:54;22.40;99.90
12115;DHT22;6121;49.810;6.418;2023-07-31T11:55:23;22.20;99.90
12115;DHT22;6121;49.810;6.418;2023-07-31T11:57:49;22.10;99.90
12115;DHT22;6121;49.810;6.418;2023-07-31T12:00:16;21.90;99.90
12115;DHT22;6121;49.810;6.418;2023-07-31T12:02:43;21.70;99.90
12115;DHT22;6121;49.810;6.418;2023-07-31T12:05:13;21.70;99.90
12115;DHT22;6121;49.810;6.418;2023-07-31T12:07:49;21.60;99.90
12115;DHT22;6121;49.810;6.418;2023-07-31T12:10:29;21.50;99.90
12115;DHT22;6121;49.810;6.418;2023-07-31T12:13:10;21.30;99.90
12115;DHT22;6121;49.810;6.418;2023-07-31T12:15:41;21.40;99.90
12115;DHT22;6121;49.810;6.418;2023-07-31T12:18:12;21.30;99.90
12115;DHT22;6121;49.810;6.418;2023-07-31T12:20:48;21.30;99.90
12115;DHT22;6121;49.810;6.418;2023-07-31T12:23:18;21.20;99.90
12115;DHT22;6121;49.810;6.418;2023-07-31T12:25:44;21.20;99.90
12115;DHT22;6121;49.810;6.418;2023-07-31T12:28:10;21.30;99.90
12115;DHT22;6121;49.810;6.418;2023-07-31T12:30:40;21.30;99.90
12115;DHT22;6121;49.810;6.418;2023-07-31T12:33:15;21.40;99.90
12115;DHT22;6121;49.810;6.418;2023-07-31T12:35:44;21.40;99.90
12115;DHT22;6121;49.810;6.418;2023-07-31T12:38:11;21.40;99.90
12115;DHT22;6121;49.810;6.418;2023-07-31T12:40:38;21.30;99.90
12115;DHT22;6121;49.810;6.418;2023-07-31T12:43:05;21.40;99.90
12115;DHT22;6121;49.810;6.418;2023-07-31T12:45:32;21.30;99.90
12115;DHT22;6121;49.810;6.418;2023-07-31T12:47:58;21.30;99.90
12115;DHT22;6121;49.810;6.418;2023-07-31T12:50:25;21.30;99.90
12115;DHT22;6121;49.810;6.418;2023-07-31T12:52:54;21.30;99.90
12115;DHT22;6121;49.810;6.418;2023-07-31T12:55:21;21.50;99.90
12115;DHT22;6121;49.810;6.418;2023-07-31T12:57:47;21.60;99.90
12115;DHT22;6121;49.810;6.418;2023-07-31T13:00:13;21.50;99.90
12115;DHT22;6121;49.810;6.418;2023-07-31T13:02:40;21.50;99.90
12115;DHT22;6121;49.810;6.418;2023-07-31T13:05:06;21.60;99.90
12115;DHT22;6121;49.810;6.418;2023-07-31T13:07:32;21.60;99.90
12115;DHT22;6121;49.810;6.418;2023-07-31T13:09:58;21.60;99.90
12115;DHT22;6121;49.810;6.418;2023-07-31T13:12:23;21.80;99.90
12115;DHT22;6121;49.810;6.418;2023-07-31T13:14:50;21.80;99.90
12115;DHT22;6121;49.810;6.418;2023-07-31T13:17:17;21.50;99.90
12115;DHT22;6121;49.810;6.418;2023-07-31T13:19:43;21.50;99.90
12115;DHT22;6121;49.810;6.418;2023-07-31T13:22:09;21.70;99.90
12115;DHT22;6121;49.810;6.418;2023-07-31T13:24:35;21.70;99.90
12115;DHT22;6121;49.810;6.418;2023-07-31T13:27:01;21.70;99.90
12115;DHT22;6121;49.810;6.418;2023-07-31T13:29:27;21.60;99.90
12115;DHT22;6121;49.810;6.418;2023-07-31T13:31:53;21.50;99.90
12115;DHT22;6121;49.810;6.418;2023-07-31T13:34:18;21.40;99.90
12115;DHT22;6121;49.810;6.418;2023-07-31T13:36:46;21.60;99.90
12115;DHT22;6121;49.810;6.418;2023-07-31T13:39:12;21.70;99.90
12115;DHT22;6121;49.810;6.418;2023-07-31T13:41:37;21.80;99.90
12115;DHT22;6121;49.810;6.418;2023-07-31T13:44:03;21.80;99.90
12115;DHT22;6121;49.810;6.418;2023-07-31T13:46:29;21.70;99.90
12115;DHT22;6121;49.810;6.418;2023-07-31T13:48:55;21.70;99.90
12115;DHT22;6121;49.810;6.418;2023-07-31T13:51:24;21.50;99.90
12115;DHT22;6121;49.810;6.418;2023-07-31T13:53:50;21.40;99.90
12115;DHT22;6121;49.810;6.418;2023-07-31T13:56:15;21.40;99.90
12115;DHT22;6121;49.810;6.418;2023-07-31T13:58:41;21.20;99.90
12115;DHT22;6121;49.810;6.418;2023-07-31T14:01:07;21.30;99.90
12115;DHT22;6121;49.810;6.418;2023-07-31T14:03:34;21.40;99.90
12115;DHT22;6121;49.810;6.418;2023-07-31T14:06:00;21.50;99.90
12115;DHT22;6121;49.810;6.418;2023-07-31T14:08:26;21.30;99.90
12115;DHT22;6121;49.810;6.418;2023-07-31T14:10:52;21.30;99.90
12115;DHT22;6121;49.810;6.418;2023-07-31T14:13:18;21.30;99.90
12115;DHT22;6121;49.810;6.418;2023-07-31T14:15:45;21.40;99.90
12115;DHT22;6121;49.810;6.418;2023-07-31T14:18:11;21.30;99.90
12115;DHT22;6121;49.810;6.418;2023-07-31T14:20:36;21.20;99.90
12115;DHT22;6121;49.810;6.418;2023-07-31T14:23:03;21.20;99.90
12115;DHT22;6121;49.810;6.418;2023-07-31T14:25:28;21.10;99.90
12115;DHT22;6121;49.810;6.418;2023-07-31T14:27:54;21.10;99.90
12115;DHT22;6121;49.810;6.418;2023-07-31T14:30:20;21.10;99.90
12115;DHT22;6121;49.810;6.418;2023-07-31T14:32:47;20.90;99.90
12115;DHT22;6121;49.810;6.418;2023-07-31T14:35:13;21.00;99.90
12115;DHT22;6121;49.810;6.418;2023-07-31T14:37:41;21.00;99.90
12115;DHT22;6121;49.810;6.418;2023-07-31T14:40:11;20.90;99.90
12115;DHT22;6121;49.810;6.418;2023-07-31T14:42:38;20.90;99.90
12115;DHT22;6121;49.810;6.418;2023-07-31T14:45:05;20.80;99.90
12115;DHT22;6121;49.810;6.418;2023-07-31T14:47:31;20.80;99.90
12115;DHT22;6121;49.810;6.418;2023-07-31T14:49:58;20.80;99.90
12115;DHT22;6121;49.810;6.418;2023-07-31T14:52:24;20.80;99.90
12115;DHT22;6121;49.810;6.418;2023-07-31T14:54:49;20.80;99.90
12115;DHT22;6121;49.810;6.418;2023-07-31T14:57:15;20.90;99.90
12115;DHT22;6121;49.810;6.418;2023-07-31T14:59:45;20.80;99.90
12115;DHT22;6121;49.810;6.418;2023-07-31T15:02:11;20.80;99.90
12115;DHT22;6121;49.810;6.418;2023-07-31T15:04:37;20.80;99.90
12115;DHT22;6121;49.810;6.418;2023-07-31T15:07:03;20.80;99.90
12115;DHT22;6121;49.810;6.418;2023-07-31T15:09:29;20.80;99.90
12115;DHT22;6121;49.810;6.418;2023-07-31T15:11:56;20.70;99.90
12115;DHT22;6121;49.810;6.418;2023-07-31T15:14:22;20.60;99.90
12115;DHT22;6121;49.810;6.418;2023-07-31T15:16:48;20.50;99.90
12115;DHT22;6121;49.810;6.418;2023-07-31T15:19:15;20.30;99.90
12115;DHT22;6121;49.810;6.418;2023-07-31T15:21:41;20.30;99.90
12115;DHT22;6121;49.810;6.418;2023-07-31T15:24:06;20.20;99.90
12115;DHT22;6121;49.810;6.418;2023-07-31T15:26:32;20.30;99.90
12115;DHT22;6121;49.810;6.418;2023-07-31T15:29:05;20.20;99.90
12115;DHT22;6121;49.810;6.418;2023-07-31T15:31:41;20.30;99.90
12115;DHT22;6121;49.810;6.418;2023-07-31T15:34:07;20.40;99.90
12115;DHT22;6121;49.810;6.418;2023-07-31T15:36:33;20.50;99.90
12115;DHT22;6121;49.810;6.418;2023-07-31T15:38:59;20.50;99.90
12115;DHT22;6121;49.810;6.418;2023-07-31T15:41:25;20.50;99.90
12115;DHT22;6121;49.810;6.418;2023-07-31T15:43:51;20.50;99.90
12115;DHT22;6121;49.810;6.418;2023-07-31T15:46:18;20.50;99.90
12115;DHT22;6121;49.810;6.418;2023-07-31T15:48:44;20.60;99.90
12115;DHT22;6121;49.810;6.418;2023-07-31T15:51:10;20.70;99.90
12115;DHT22;6121;49.810;6.418;2023-07-31T15:53:36;20.80;99.90
12115;DHT22;6121;49.810;6.418;2023-07-31T15:56:02;20.80;99.90
12115;DHT22;6121;49.810;6.418;2023-07-31T15:58:28;20.70;99.90